Time;durP1;ratioP1;P1;durP2;ratioP2;P2;SDS_P1;SDS_P2;PMS_P1;PMS_P2;Temp;Humidity;BMP_temperature;BMP_pressure;BME280_temperature;BME280_humidity;BME280_pressure;Samples;Min_cycle;Max_cycle;Signal;HPM_P1;HPM_P2
2023/11/21 00:00:19;;;;;;;16.47;11.47;;;;;;;0.43;87.44;99692.34;5119485;27;20199;-75
2023/11/21 00:02:48;;;;;;;14.70;10.23;;;;;;;0.40;88.17;99697.34;5115074;27;20716;-74
2023/11/21 00:05:16;;;;;;;17.23;11.83;;;;;;;0.36;87.96;99700.63;5116012;27;20241;-73
2023/11/21 00:07:45;;;;;;;18.67;12.10;;;;;;;0.35;88.06;99705.66;5114785;27;20675;-75
2023/11/21 00:10:15;;;;;;;15.33;10.70;;;;;;;0.34;88.38;99711.56;5112283;27;20286;-72
2023/11/21 00:12:44;;;;;;;17.03;10.97;;;;;;;0.36;88.57;99712.44;5113866;27;20207;-75
2023/11/21 00:15:11;;;;;;;18.83;11.73;;;;;;;0.33;88.64;99710.72;5121503;27;20602;-74
2023/11/21 00:17:39;;;;;;;16.87;11.63;;;;;;;0.35;89.06;99711.59;5114254;28;20674;-73
2023/11/21 00:20:13;;;;;;;15.83;10.70;;;;;;;0.35;88.53;99713.25;5108073;27;20291;-76
2023/11/21 00:22:42;;;;;;;18.30;12.83;;;;;;;0.37;87.99;99725.16;5110335;27;20682;-67
2023/11/21 00:25:11;;;;;;;16.23;11.07;;;;;;;0.38;87.85;99724.34;5109936;27;20196;-69
2023/11/21 00:27:39;;;;;;;16.37;10.97;;;;;;;0.38;87.89;99734.47;5119267;27;20215;-68
2023/11/21 00:30:08;;;;;;;15.17;10.83;;;;;;;0.31;87.71;99719.94;5113220;27;20275;-69
2023/11/21 00:32:36;;;;;;;17.80;11.13;;;;;;;0.34;87.53;99734.38;5115421;27;20203;-69
2023/11/21 00:35:06;;;;;;;15.67;10.30;;;;;;;0.30;87.58;99725.81;5118438;27;20253;-67
2023/11/21 00:37:35;;;;;;;19.20;11.60;;;;;;;0.22;87.94;99733.25;5103653;27;20223;-69
2023/11/21 00:40:06;;;;;;;17.53;11.93;;;;;;;0.23;88.24;99737.47;5115077;27;20199;-70
2023/11/21 00:42:34;;;;;;;16.77;11.77;;;;;;;0.26;88.28;99735.81;5111303;27;20245;-67
2023/11/21 00:45:03;;;;;;;16.27;11.00;;;;;;;0.28;87.91;99740.13;5113751;27;20215;-68
2023/11/21 00:47:31;;;;;;;18.47;11.00;;;;;;;0.27;87.78;99733.34;5105206;27;20195;-69
2023/11/21 00:49:59;;;;;;;17.60;11.73;;;;;;;0.25;87.72;99740.03;5107306;27;20199;-69
2023/11/21 00:52:27;;;;;;;16.73;11.60;;;;;;;0.24;88.03;99736.66;5122628;27;20249;-69
2023/11/21 00:54:59;;;;;;;19.93;12.13;;;;;;;0.23;88.14;99746.75;5116517;27;20195;-68
2023/11/21 00:57:28;;;;;;;19.67;11.77;;;;;;;0.19;87.59;99744.97;5112982;28;20207;-68
2023/11/21 00:59:56;;;;;;;18.50;11.53;;;;;;;0.17;88.13;99747.44;5105300;28;20200;-69
2023/11/21 01:02:25;;;;;;;17.87;11.20;;;;;;;0.16;88.79;99755.03;5106511;28;20234;-69
2023/11/21 01:04:53;;;;;;;17.07;11.97;;;;;;;0.14;88.18;99746.53;5101541;28;20211;-67
2023/11/21 01:07:22;;;;;;;15.57;11.00;;;;;;;0.11;88.07;99747.31;5119795;28;20307;-72
2023/11/21 01:09:50;;;;;;;19.30;12.37;;;;;;;0.08;88.15;99748.91;5124421;27;20232;-69
2023/11/21 01:12:21;;;;;;;17.20;10.67;;;;;;;0.09;87.91;99754.00;5117585;27;20282;-68
2023/11/21 01:14:49;;;;;;;18.03;12.13;;;;;;;0.09;88.10;99753.16;5114564;28;20264;-70
2023/11/21 01:17:18;;;;;;;16.37;11.10;;;;;;;0.12;88.54;99760.84;5123360;27;20216;-67
2023/11/21 01:19:46;;;;;;;17.00;11.67;;;;;;;0.07;88.04;99754.78;5117294;27;20643;-69
2023/11/21 01:22:16;;;;;;;18.17;12.40;;;;;;;0.12;88.02;99760.84;5111891;27;20245;-68
2023/11/21 01:24:44;;;;;;;18.13;12.33;;;;;;;0.12;87.69;99761.69;5110050;27;20242;-67
2023/11/21 01:27:12;;;;;;;15.63;10.73;;;;;;;0.11;87.39;99761.63;5118298;27;20565;-68
2023/11/21 01:29:41;;;;;;;15.97;11.40;;;;;;;-0.06;86.90;99751.09;5119950;27;20557;-70
2023/11/21 01:32:09;;;;;;;17.57;10.67;;;;;;;-0.03;86.99;99759.63;5120217;27;20196;-63
2023/11/21 01:34:38;;;;;;;17.60;12.10;;;;;;;-0.07;87.55;99773.03;5116166;27;20257;-65
2023/11/21 01:37:06;;;;;;;16.20;12.00;;;;;;;-0.11;87.16;99766.16;5116860;27;20285;-66
2023/11/21 01:39:34;;;;;;;16.53;10.33;;;;;;;-0.12;87.57;99766.97;5110358;27;21004;-63
2023/11/21 01:42:02;;;;;;;18.53;11.97;;;;;;;-0.13;87.65;99767.78;5119464;27;20664;-63
2023/11/21 01:44:30;;;;;;;17.73;11.30;;;;;;;-0.08;87.96;99770.44;5112113;27;20764;-63
2023/11/21 01:47:04;;;;;;;19.77;11.27;;;;;;;-0.02;87.83;99763.84;5122388;27;20300;-65
2023/11/21 01:49:34;;;;;;;23.17;13.43;;;;;;;-0.02;87.39;99776.53;5123149;27;20272;-70
2023/11/21 01:52:04;;;;;;;16.53;11.80;;;;;;;0.01;86.75;99774.91;5108378;27;20262;-65
2023/11/21 01:54:33;;;;;;;17.23;11.50;;;;;;;-0.07;86.78;99775.56;5107758;27;20249;-69
2023/11/21 01:57:02;;;;;;;17.90;12.50;;;;;;;-0.11;86.98;99773.75;5122063;27;20205;-66
2023/11/21 01:59:36;;;;;;;20.80;12.87;;;;;;;-0.08;86.90;99770.44;5107904;27;20709;-64
2023/11/21 02:02:07;;;;;;;17.37;11.67;;;;;;;-0.09;87.13;99768.72;5113517;27;20200;-66
2023/11/21 02:04:36;;;;;;;17.70;12.43;;;;;;;-0.07;87.33;99767.09;5120450;27;20632;-64
2023/11/21 02:07:05;;;;;;;18.73;12.67;;;;;;;-0.05;87.69;99766.31;5120222;27;20580;-65
2023/11/21 02:09:34;;;;;;;18.50;12.70;;;;;;;-0.01;87.69;99768.09;5131378;27;20227;-62
2023/11/21 02:12:02;;;;;;;17.07;11.93;;;;;;;0.04;87.50;99769.88;5129119;27;20270;-63
2023/11/21 02:14:31;;;;;;;18.63;12.17;;;;;;;0.06;86.98;99775.88;5117286;27;20232;-63
2023/11/21 02:17:00;;;;;;;16.60;11.23;;;;;;;0.08;86.08;99780.16;5098822;27;20273;-62
2023/11/21 02:19:30;;;;;;;17.23;11.83;;;;;;;0.04;85.92;99774.94;5107742;27;20227;-64
2023/11/21 02:22:03;;;;;;;13.97;9.83;;;;;;;-0.02;85.77;99785.81;5125970;27;20191;-63
2023/11/21 02:24:32;;;;;;;15.63;11.00;;;;;;;0.01;86.06;99790.09;5111924;27;20201;-62
2023/11/21 02:27:00;;;;;;;14.20;10.17;;;;;;;0.02;85.85;99794.34;5113467;27;20196;-63
2023/11/21 02:29:28;;;;;;;14.83;10.77;;;;;;;-0.05;85.48;99788.25;5115368;27;20200;-64
2023/11/21 02:31:56;;;;;;;18.40;11.67;;;;;;;-0.07;85.67;99790.75;5120324;27;20669;-65
2023/11/21 02:34:25;;;;;;;14.67;10.27;;;;;;;-0.07;86.10;99793.28;5110214;27;20192;-65
2023/11/21 02:36:53;;;;;;;16.03;10.80;;;;;;;-0.08;86.10;99791.53;5117642;27;20372;-63
2023/11/21 02:39:23;;;;;;;16.33;11.97;;;;;;;-0.09;86.27;99791.50;5113644;27;20585;-62
2023/11/21 02:41:55;;;;;;;15.50;11.20;;;;;;;-0.07;87.38;99792.44;5121050;27;20296;-69
2023/11/21 02:44:24;;;;;;;17.07;12.03;;;;;;;-0.02;86.63;99790.88;5113136;27;20643;-69
2023/11/21 02:46:51;;;;;;;16.83;11.10;;;;;;;0.01;86.07;99798.53;5119571;27;20216;-69
2023/11/21 02:49:19;;;;;;;18.07;11.53;;;;;;;0.03;86.32;99798.56;5107114;27;20228;-71
2023/11/21 02:51:47;;;;;;;15.33;10.90;;;;;;;0.04;86.50;99800.28;5120004;27;20600;-70
2023/11/21 02:54:16;;;;;;;16.20;10.43;;;;;;;0.03;86.52;99788.44;5107318;28;20220;-71
2023/11/21 02:56:47;;;;;;;15.53;10.37;;;;;;;-0.03;85.61;99794.22;5106878;27;20927;-69
2023/11/21 02:59:16;;;;;;;14.73;10.07;;;;;;;-0.02;86.47;99798.47;5105223;27;20224;-69
2023/11/21 03:01:44;;;;;;;15.20;10.67;;;;;;;0.00;86.39;99804.44;5117653;27;20309;-69
2023/11/21 03:04:19;;;;;;;16.97;10.40;;;;;;;0.03;86.29;99798.56;5115621;27;20658;-70
2023/11/21 03:06:47;;;;;;;13.90;10.30;;;;;;;0.03;85.68;99804.50;5124357;27;20206;-68
2023/11/21 03:09:16;;;;;;;17.33;10.53;;;;;;;-0.02;85.41;99803.53;5117556;27;20199;-69
2023/11/21 03:11:44;;;;;;;18.17;11.80;;;;;;;-0.07;85.43;99808.47;5128682;27;20658;-70
2023/11/21 03:14:12;;;;;;;16.60;10.50;;;;;;;-0.10;86.24;99802.47;5115249;27;20706;-69
2023/11/21 03:16:42;;;;;;;17.17;11.23;;;;;;;-0.07;85.68;99807.63;5116155;27;21919;-70
2023/11/21 03:19:10;;;;;;;20.10;11.97;;;;;;;-0.09;86.12;99801.66;5128663;27;20264;-68
2023/11/21 03:21:38;;;;;;;18.63;11.67;;;;;;;-0.11;85.80;99813.38;5122825;27;20606;-70
2023/11/21 03:24:07;;;;;;;16.90;11.30;;;;;;;-0.18;86.16;99809.84;5113345;28;20208;-69
2023/11/21 03:26:35;;;;;;;17.37;11.17;;;;;;;-0.20;85.96;99811.47;5122175;27;20210;-70
2023/11/21 03:29:04;;;;;;;14.83;11.13;;;;;;;-0.23;85.74;99818.97;5117568;27;20210;-70
2023/11/21 03:31:32;;;;;;;16.33;10.83;;;;;;;-0.27;86.38;99818.03;5113379;27;20645;-69
2023/11/21 03:34:04;;;;;;;17.47;11.50;;;;;;;-0.31;86.77;99813.69;5113491;27;20242;-70
2023/11/21 03:36:32;;;;;;;18.13;11.73;;;;;;;-0.36;86.32;99807.66;5106159;27;20674;-69
2023/11/21 03:39:00;;;;;;;16.53;10.97;;;;;;;-0.35;87.12;99811.03;5119554;27;20323;-70
2023/11/21 03:41:29;;;;;;;15.97;11.17;;;;;;;-0.31;87.25;99822.97;5131354;27;20192;-71
2023/11/21 03:43:57;;;;;;;16.77;11.30;;;;;;;-0.34;86.62;99816.13;5111628;28;20571;-69
2023/11/21 03:46:25;;;;;;;17.90;12.67;;;;;;;-0.37;86.22;99817.72;5115882;27;20212;-71
2023/11/21 03:48:55;;;;;;;15.67;10.60;;;;;;;-0.40;86.88;99822.72;5112033;27;20200;-70
2023/11/21 03:51:26;;;;;;;16.93;11.23;;;;;;;-0.44;87.37;99828.47;5115642;27;20231;-71
2023/11/21 03:53:57;;;;;;;15.63;10.60;;;;;;;-0.44;87.88;99831.00;5112584;27;20200;-68
2023/11/21 03:56:25;;;;;;;20.27;12.13;;;;;;;-0.44;88.28;99841.13;5115296;27;20234;-66
2023/11/21 03:58:53;;;;;;;16.07;10.70;;;;;;;-0.42;88.44;99847.13;5113901;27;20223;-68
2023/11/21 04:01:22;;;;;;;18.67;11.80;;;;;;;-0.42;88.84;99854.72;5110153;27;20199;-68
2023/11/21 04:03:51;;;;;;;14.93;9.67;;;;;;;-0.50;87.99;99845.22;5113568;27;20204;-67
2023/11/21 04:06:20;;;;;;;16.50;10.77;;;;;;;-0.53;88.93;99852.72;5111479;27;20195;-67
2023/11/21 04:08:49;;;;;;;15.50;10.33;;;;;;;-0.56;89.14;99854.28;5115479;27;20195;-68
2023/11/21 04:11:17;;;;;;;15.33;9.63;;;;;;;-0.59;89.64;99857.63;5108097;28;20196;-68
2023/11/21 04:13:46;;;;;;;13.30;10.17;;;;;;;-0.61;89.82;99849.09;5111689;27;20204;-68
2023/11/21 04:16:14;;;;;;;15.43;9.90;;;;;;;-0.64;89.93;99860.81;5116377;27;20203;-67
2023/11/21 04:18:43;;;;;;;13.17;9.20;;;;;;;-0.68;89.82;99862.38;5114823;27;20230;-68
2023/11/21 04:21:11;;;;;;;16.17;9.77;;;;;;;-0.66;90.78;99859.88;5120271;27;20203;-68
2023/11/21 04:23:40;;;;;;;12.30;8.90;;;;;;;-0.63;90.57;99850.72;5119169;27;20220;-69
2023/11/21 04:26:10;;;;;;;14.20;9.63;;;;;;;-0.64;90.27;99855.75;5119193;27;20628;-68
2023/11/21 04:28:38;;;;;;;15.37;10.70;;;;;;;-0.67;90.55;99859.03;5112482;27;20211;-68
2023/11/21 04:31:06;;;;;;;16.20;9.80;;;;;;;-0.64;90.85;99853.22;5109626;28;20260;-67
2023/11/21 04:33:35;;;;;;;14.50;9.63;;;;;;;-0.61;90.09;99859.22;5106510;27;20206;-68
2023/11/21 04:36:03;;;;;;;15.77;9.30;;;;;;;-0.59;90.69;99870.28;5118483;27;20203;-70
2023/11/21 04:38:31;;;;;;;14.23;10.47;;;;;;;-0.53;91.02;99865.38;5122024;27;20207;-68
2023/11/21 04:40:59;;;;;;;13.63;9.93;;;;;;;-0.46;90.71;99873.16;5123397;27;20610;-68
2023/11/21 04:43:31;;;;;;;13.30;9.20;;;;;;;-0.43;90.38;99873.25;5113816;27;20196;-69
2023/11/21 04:45:59;;;;;;;13.47;9.67;;;;;;;-0.42;89.96;99882.56;5109175;28;20242;-68
2023/11/21 04:48:28;;;;;;;11.77;8.67;;;;;;;-0.42;89.58;99888.47;5114127;27;20581;-68
2023/11/21 04:50:56;;;;;;;12.17;8.73;;;;;;;-0.39;90.34;99890.25;5111419;27;20200;-67
2023/11/21 04:53:24;;;;;;;10.33;7.80;;;;;;;-0.40;88.29;99886.00;5120402;27;20255;-68
2023/11/21 04:55:52;;;;;;;12.90;9.40;;;;;;;-0.46;88.66;99889.19;5110039;27;20212;-67
2023/11/21 04:58:20;;;;;;;11.03;7.97;;;;;;;-0.44;89.11;99884.16;5123921;27;20270;-67
2023/11/21 05:00:50;;;;;;;11.37;8.03;;;;;;;-0.41;89.57;99886.78;5119421;27;20284;-67
2023/11/21 05:03:18;;;;;;;11.27;8.50;;;;;;;-0.39;88.45;99886.03;5114549;27;20234;-72
2023/11/21 05:05:46;;;;;;;11.07;8.10;;;;;;;-0.43;88.60;99886.75;5114930;28;20567;-71
2023/11/21 05:08:14;;;;;;;11.30;8.03;;;;;;;-0.42;88.27;99887.63;5126987;27;20215;-70
2023/11/21 05:10:42;;;;;;;14.00;8.53;;;;;;;-0.40;88.68;99888.53;5117137;27;20204;-69
2023/11/21 05:13:10;;;;;;;11.90;8.57;;;;;;;-0.37;88.19;99899.59;5114552;28;20578;-73
2023/11/21 05:15:39;;;;;;;11.27;8.13;;;;;;;-0.39;87.07;99907.97;5117462;28;20227;-70
2023/11/21 05:18:08;;;;;;;11.30;7.67;;;;;;;-0.40;87.41;99906.25;5120347;28;20286;-69
2023/11/21 05:20:39;;;;;;;10.00;7.77;;;;;;;-0.43;87.88;99904.47;5106027;28;20806;-70
2023/11/21 05:23:08;;;;;;;11.63;7.80;;;;;;;-0.40;87.69;99904.56;5110134;28;20195;-72
2023/11/21 05:25:36;;;;;;;10.03;7.23;;;;;;;-0.38;87.45;99907.13;5115636;28;20203;-69
2023/11/21 05:28:07;;;;;;;10.77;7.83;;;;;;;-0.39;87.19;99905.44;5121300;28;20742;-70
2023/11/21 05:30:35;;;;;;;11.40;7.83;;;;;;;-0.35;87.48;99912.31;5106335;28;20204;-69
2023/11/21 05:33:04;;;;;;;10.70;7.67;;;;;;;-0.35;87.23;99918.22;5115692;28;20280;-68
2023/11/21 05:35:33;;;;;;;9.80;7.47;;;;;;;-0.36;86.87;99920.72;5107285;28;20205;-70
2023/11/21 05:38:01;;;;;;;11.67;7.60;;;;;;;-0.39;86.57;99921.47;5115285;28;20720;-70
2023/11/21 05:40:29;;;;;;;10.73;7.87;;;;;;;-0.37;86.43;99921.50;5120118;28;20215;-70
2023/11/21 05:42:58;;;;;;;10.73;7.67;;;;;;;-0.38;87.19;99925.72;5113457;28;20204;-71
2023/11/21 05:45:26;;;;;;;11.57;7.30;;;;;;;-0.36;86.25;99931.69;5126094;28;20199;-73
2023/11/21 05:47:54;;;;;;;9.37;7.13;;;;;;;-0.38;86.38;99932.44;5116206;28;20200;-70
2023/11/21 05:50:22;;;;;;;9.90;6.87;;;;;;;-0.40;86.83;99931.56;5113379;28;22249;-70
2023/11/21 05:52:51;;;;;;;10.07;7.23;;;;;;;-0.40;85.91;99934.09;5104895;28;20208;-69
2023/11/21 05:55:21;;;;;;;12.53;7.20;;;;;;;-0.41;85.91;99937.41;5108734;27;20666;-69
2023/11/21 05:57:49;;;;;;;11.67;7.47;;;;;;;-0.43;86.59;99934.00;5104440;27;20192;-69
2023/11/21 06:00:20;;;;;;;11.50;7.00;;;;;;;-0.44;86.56;99944.91;5123785;27;20264;-69
2023/11/21 06:02:52;;;;;;;10.43;7.03;;;;;;;-0.43;86.47;99949.19;5109825;27;20214;-70
2023/11/21 06:05:23;;;;;;;10.07;6.77;;;;;;;-0.45;86.10;99941.53;5126913;27;20273;-68
2023/11/21 06:07:56;;;;;;;11.37;7.33;;;;;;;-0.48;86.11;99943.94;5122475;27;20200;-69
2023/11/21 06:10:24;;;;;;;11.77;7.33;;;;;;;-0.47;85.46;99947.38;5118175;27;20203;-71
2023/11/21 06:12:54;;;;;;;9.37;6.77;;;;;;;-0.49;85.95;99954.91;5118386;27;20296;-67
2023/11/21 06:15:23;;;;;;;10.93;6.83;;;;;;;-0.54;85.70;99951.38;5106730;27;20772;-68
2023/11/21 06:17:53;;;;;;;8.77;6.13;;;;;;;-0.55;86.05;99968.22;5113448;27;20218;-67
2023/11/21 06:20:23;;;;;;;9.73;6.57;;;;;;;-0.58;86.17;99974.88;5115973;27;20694;-66
2023/11/21 06:22:53;;;;;;;10.93;7.13;;;;;;;-0.60;86.70;99977.31;5101705;27;20199;-68
2023/11/21 06:25:21;;;;;;;8.70;6.70;;;;;;;-0.63;86.72;99972.16;5116646;27;20264;-69
2023/11/21 06:27:51;;;;;;;11.13;7.33;;;;;;;-0.65;87.09;99978.88;5120076;27;20211;-66
2023/11/21 06:30:20;;;;;;;9.00;7.00;;;;;;;-0.62;87.60;99980.66;5117549;27;20199;-69
2023/11/21 06:32:49;;;;;;;9.57;7.37;;;;;;;-0.59;87.46;99981.59;5109036;27;20257;-67
2023/11/21 06:35:17;;;;;;;8.93;7.10;;;;;;;-0.57;87.73;99981.63;5123600;27;20625;-69
2023/11/21 06:37:47;;;;;;;11.47;7.07;;;;;;;-0.54;87.28;99976.69;5120392;27;20290;-69
2023/11/21 06:40:19;;;;;;;10.37;7.67;;;;;;;-0.53;86.94;99980.91;5113057;27;20222;-68
2023/11/21 06:42:50;;;;;;;10.03;7.60;;;;;;;-0.53;87.28;99989.38;5117610;27;20666;-71
2023/11/21 06:45:19;;;;;;;13.70;8.53;;;;;;;-0.55;86.89;99983.41;5112637;27;20187;-68
2023/11/21 06:47:48;;;;;;;8.80;6.63;;;;;;;-0.60;86.93;99996.72;5111296;28;20212;-70
2023/11/21 06:50:17;;;;;;;9.83;7.37;;;;;;;-0.57;87.30;100000.22;5112759;28;20204;-69
2023/11/21 06:52:45;;;;;;;13.90;7.87;;;;;;;-0.64;87.48;99995.75;5116187;27;20257;-67
2023/11/21 06:55:13;;;;;;;11.27;7.23;;;;;;;-0.61;87.39;100005.97;5116387;27;20269;-69
2023/11/21 06:57:42;;;;;;;13.57;7.63;;;;;;;-0.60;87.66;100006.84;5100836;28;20284;-69
2023/11/21 07:00:12;;;;;;;10.03;7.53;;;;;;;-0.63;87.21;100001.66;5113023;27;20200;-71
2023/11/21 07:02:40;;;;;;;12.87;7.87;;;;;;;-0.62;87.13;100016.91;5112088;27;20196;-71
2023/11/21 07:05:09;;;;;;;10.57;7.57;;;;;;;-0.65;87.92;100019.34;5105713;27;20700;-67
2023/11/21 07:07:37;;;;;;;12.07;8.30;;;;;;;-0.66;87.79;100022.69;5109522;27;20250;-70
2023/11/21 07:10:07;;;;;;;13.67;8.60;;;;;;;-0.64;88.04;100026.13;5116073;27;20261;-68
2023/11/21 07:12:35;;;;;;;16.03;9.53;;;;;;;-0.63;87.33;100029.50;5112220;27;20219;-67
2023/11/21 07:15:08;;;;;;;13.37;8.47;;;;;;;-0.65;87.98;100023.56;5112214;27;20234;-69
2023/11/21 07:17:38;;;;;;;13.63;8.77;;;;;;;-0.64;87.95;100028.66;5115669;27;20670;-71
2023/11/21 07:20:10;;;;;;;12.07;8.40;;;;;;;-0.64;87.77;100026.13;5116869;27;20204;-68
2023/11/21 07:22:39;;;;;;;13.40;8.03;;;;;;;-0.64;87.97;100031.19;5118385;27;20203;-65
2023/11/21 07:25:09;;;;;;;11.33;7.90;;;;;;;-0.62;87.40;100028.72;5116837;27;21488;-64
2023/11/21 07:27:37;;;;;;;12.20;8.27;;;;;;;-0.64;86.87;100036.25;5126859;27;20308;-66
2023/11/21 07:30:09;;;;;;;12.03;7.90;;;;;;;-0.65;87.44;100034.53;5110100;27;20237;-65
2023/11/21 07:32:39;;;;;;;11.80;7.70;;;;;;;-0.63;87.34;100034.56;5114704;27;21071;-68
2023/11/21 07:35:09;;;;;;;11.13;7.23;;;;;;;-0.65;86.52;100039.59;5117761;27;20204;-65
2023/11/21 07:37:37;;;;;;;11.30;7.57;;;;;;;-0.66;86.89;100042.94;5113445;27;20572;-64
2023/11/21 07:40:08;;;;;;;12.23;8.40;;;;;;;-0.66;86.84;100037.00;5112989;28;20196;-63
2023/11/21 07:42:37;;;;;;;12.77;7.70;;;;;;;-0.63;86.56;100043.00;5112712;28;20219;-63
2023/11/21 07:45:08;;;;;;;11.03;7.70;;;;;;;-0.59;86.29;100042.34;5111198;28;20200;-63
2023/11/21 07:47:38;;;;;;;10.93;7.30;;;;;;;-0.55;86.36;100048.34;5110585;27;20238;-65
2023/11/21 07:50:08;;;;;;;12.53;7.90;;;;;;;-0.54;85.82;100042.47;5113389;27;20207;-62
2023/11/21 07:52:39;;;;;;;12.67;7.63;;;;;;;-0.53;85.42;100046.72;5112686;28;20204;-65
2023/11/21 07:55:08;;;;;;;10.10;8.20;;;;;;;-0.56;84.88;100049.13;5109461;27;20204;-62
2023/11/21 07:57:36;;;;;;;11.03;7.37;;;;;;;-0.52;85.48;100045.91;5122268;27;20221;-63
2023/11/21 08:00:09;;;;;;;11.67;8.33;;;;;;;-0.47;85.26;100043.53;5116192;27;20236;-65
2023/11/21 08:02:37;;;;;;;12.30;7.70;;;;;;;-0.41;85.54;100047.09;5107927;27;20712;-63
2023/11/21 08:05:06;;;;;;;11.50;8.27;;;;;;;-0.35;84.86;100034.66;5105165;27;20210;-65
2023/11/21 08:07:42;;;;;;;10.83;7.53;;;;;;;-0.33;85.59;100047.34;5107867;27;20199;-62
2023/11/21 08:10:11;;;;;;;13.33;7.77;;;;;;;-0.32;84.90;100055.00;5120389;27;20646;-63
2023/11/21 08:12:39;;;;;;;10.50;7.67;;;;;;;-0.31;85.11;100048.28;5111121;27;20199;-63
2023/11/21 08:15:10;;;;;;;11.37;7.40;;;;;;;-0.30;84.60;100057.59;5110851;27;20586;-65
2023/11/21 08:17:38;;;;;;;10.97;7.90;;;;;;;-0.28;84.77;100059.34;5108314;27;20200;-64
2023/11/21 08:20:08;;;;;;;10.80;7.40;;;;;;;-0.32;84.51;100055.00;5108968;27;20211;-65
2023/11/21 08:22:37;;;;;;;12.73;7.97;;;;;;;-0.30;85.63;100057.59;5108812;27;20272;-67
2023/11/21 08:25:06;;;;;;;11.30;8.30;;;;;;;-0.30;85.80;100063.50;5107141;27;20215;-64
2023/11/21 08:27:35;;;;;;;14.27;9.17;;;;;;;-0.26;85.08;100070.41;5107820;27;20199;-65
2023/11/21 08:30:03;;;;;;;11.33;7.77;;;;;;;-0.25;85.44;100076.34;5111543;27;20741;-66
2023/11/21 08:32:33;;;;;;;12.83;8.23;;;;;;;-0.26;85.10;100074.59;5111960;27;20207;-69
2023/11/21 08:35:02;;;;;;;13.33;8.50;;;;;;;-0.30;84.93;100083.75;5102066;27;20558;-70
2023/11/21 08:37:32;;;;;;;14.67;8.07;;;;;;;-0.30;85.21;100078.69;5102547;27;20631;-71
2023/11/21 08:40:02;;;;;;;13.03;8.67;;;;;;;-0.32;85.45;100085.38;5109234;27;20203;-69
2023/11/21 08:42:30;;;;;;;12.47;8.60;;;;;;;-0.33;86.05;100080.25;5115250;27;20219;-70
2023/11/21 08:44:58;;;;;;;11.50;8.17;;;;;;;-0.30;84.83;100086.28;5111048;27;20272;-70
2023/11/21 08:47:27;;;;;;;11.87;8.10;;;;;;;-0.30;85.38;100088.81;5108278;27;20290;-70
2023/11/21 08:49:58;;;;;;;11.10;7.73;;;;;;;-0.31;85.61;100086.25;5112840;27;20253;-69
2023/11/21 08:52:27;;;;;;;13.93;8.47;;;;;;;-0.29;85.40;100094.78;5102190;27;20206;-69
2023/11/21 08:54:56;;;;;;;14.60;9.20;;;;;;;-0.24;85.26;100088.16;5108161;27;20195;-73
2023/11/21 08:57:24;;;;;;;13.80;9.60;;;;;;;-0.20;85.10;100090.00;5110627;27;20609;-69
2023/11/21 08:59:55;;;;;;;12.50;8.93;;;;;;;-0.16;85.03;100101.94;5099902;28;20694;-69
2023/11/21 09:02:24;;;;;;;14.30;9.63;;;;;;;-0.14;85.47;100097.78;5111928;27;20677;-69
2023/11/21 09:04:52;;;;;;;11.93;8.67;;;;;;;-0.12;85.27;100103.75;5106704;28;20276;-66
2023/11/21 09:07:22;;;;;;;12.63;8.80;;;;;;;-0.12;85.20;100108.81;5112017;27;20208;-71
2023/11/21 09:09:51;;;;;;;14.70;9.53;;;;;;;-0.11;85.58;100110.56;5102018;28;20244;-75
2023/11/21 09:12:19;;;;;;;12.87;8.93;;;;;;;-0.09;85.68;100103.84;5110785;28;20238;-69
2023/11/21 09:14:47;;;;;;;12.77;8.73;;;;;;;-0.05;85.51;100108.19;5105856;28;20327;-73
2023/11/21 09:17:15;;;;;;;16.57;9.67;;;;;;;-0.02;84.57;100109.97;5113198;28;20202;-68
2023/11/21 09:19:45;;;;;;;14.30;9.77;;;;;;;-0.02;84.28;100120.13;5108680;28;20210;-68
2023/11/21 09:22:13;;;;;;;15.90;9.37;;;;;;;-0.01;84.21;100117.63;5110792;28;20270;-68
2023/11/21 09:24:42;;;;;;;15.43;8.90;;;;;;;0.01;84.66;100116.81;5095208;28;20204;-66
2023/11/21 09:27:11;;;;;;;14.37;10.20;;;;;;;0.08;83.88;100122.13;5105328;28;20563;-74
2023/11/21 09:29:39;;;;;;;15.43;11.17;;;;;;;0.13;83.80;100120.59;5111839;28;20212;-70
2023/11/21 09:32:08;;;;;;;13.53;9.70;;;;;;;0.11;82.74;100119.69;5113707;27;20628;-70
2023/11/21 09:34:38;;;;;;;13.10;9.40;;;;;;;0.12;83.34;100125.63;5114752;27;20655;-73
2023/11/21 09:37:06;;;;;;;16.90;10.43;;;;;;;0.11;83.97;100119.69;5107380;27;20202;-72
2023/11/21 09:39:35;;;;;;;14.17;9.83;;;;;;;0.19;83.77;100119.94;5115069;27;20232;-73
2023/11/21 09:42:11;;;;;;;13.03;9.83;;;;;;;0.24;83.18;100119.25;5116078;27;20235;-69
2023/11/21 09:44:47;;;;;;;18.63;10.70;;;;;;;0.26;82.56;100108.28;5122309;27;20223;-68
2023/11/21 09:47:20;;;;;;;14.67;10.20;;;;;;;0.26;82.19;100109.19;5117447;27;20194;-69
2023/11/21 09:49:51;;;;;;;14.67;9.77;;;;;;;0.28;82.12;100106.69;5110284;27;20200;-69
2023/11/21 09:52:25;;;;;;;14.50;9.90;;;;;;;0.22;81.81;100105.69;5112453;27;20255;-69
2023/11/21 09:54:56;;;;;;;13.47;9.70;;;;;;;0.23;81.99;100106.56;5106409;27;20300;-70
2023/11/21 09:57:27;;;;;;;17.07;10.10;;;;;;;0.24;82.01;100113.34;5092492;27;22350;-72
2023/11/21 09:59:58;;;;;;;14.77;9.40;;;;;;;0.24;81.73;100120.94;5104847;27;20859;-70
2023/11/21 10:02:32;;;;;;;13.97;9.40;;;;;;;0.20;82.16;100122.50;5107319;27;20211;-69
2023/11/21 10:05:01;;;;;;;11.60;8.53;;;;;;;0.22;80.78;100122.53;5115471;27;20212;-69
2023/11/21 10:07:32;;;;;;;13.53;9.20;;;;;;;0.14;81.41;100117.25;5110821;27;20197;-68
2023/11/21 10:10:02;;;;;;;15.20;9.47;;;;;;;0.15;81.39;100136.72;5110176;27;20225;-69
2023/11/21 10:12:34;;;;;;;14.93;10.33;;;;;;;0.14;81.93;100134.13;5118562;27;20752;-70
2023/11/21 10:15:06;;;;;;;12.90;8.93;;;;;;;0.13;81.97;100134.94;5117537;27;20296;-70
2023/11/21 10:17:42;;;;;;;13.53;9.37;;;;;;;0.15;81.72;100138.41;5111002;27;20207;-70
2023/11/21 10:20:13;;;;;;;15.17;9.70;;;;;;;0.16;82.34;100135.91;5110533;27;20223;-68
2023/11/21 10:22:44;;;;;;;13.00;9.40;;;;;;;0.22;82.86;100135.22;5120463;27;20220;-69
2023/11/21 10:25:14;;;;;;;13.80;9.37;;;;;;;0.29;82.74;100133.75;5111188;27;20200;-73
2023/11/21 10:27:43;;;;;;;15.03;10.00;;;;;;;0.33;82.13;100138.09;5110726;27;20259;-69
2023/11/21 10:30:12;;;;;;;13.77;8.97;;;;;;;0.36;82.06;100133.13;5122877;27;20574;-70
2023/11/21 10:32:40;;;;;;;14.17;9.60;;;;;;;0.30;81.95;100122.81;5105065;27;20203;-68
2023/11/21 10:35:11;;;;;;;13.90;9.27;;;;;;;0.32;82.00;100121.16;5115833;27;20196;-68
2023/11/21 10:37:40;;;;;;;15.00;9.70;;;;;;;0.33;81.75;100122.88;5112283;27;20218;-69
2023/11/21 10:40:11;;;;;;;14.07;9.63;;;;;;;0.32;82.17;100121.16;5103378;27;20303;-70
2023/11/21 10:42:41;;;;;;;13.53;9.20;;;;;;;0.34;81.67;100137.28;5104182;27;20218;-71
2023/11/21 10:45:13;;;;;;;13.40;9.57;;;;;;;0.32;81.60;100147.38;5106284;27;20205;-69
2023/11/21 10:47:43;;;;;;;13.47;9.37;;;;;;;0.32;81.47;100144.81;5110293;27;20208;-75
2023/11/21 10:50:11;;;;;;;14.13;9.87;;;;;;;0.34;82.04;100144.91;5120740;27;20574;-73
2023/11/21 10:52:43;;;;;;;15.53;11.00;;;;;;;0.35;81.39;100147.47;5111722;27;20214;-72
2023/11/21 10:55:22;;;;;;;14.97;9.87;;;;;;;0.34;81.21;100150.81;5109114;27;20208;-71
2023/11/21 10:57:53;;;;;;;13.10;10.03;;;;;;;0.34;81.74;100157.56;5107351;27;20257;-71
2023/11/21 11:00:24;;;;;;;16.10;9.87;;;;;;;0.33;81.42;100153.28;5104692;27;21758;-72
2023/11/21 11:02:54;;;;;;;13.43;9.87;;;;;;;0.36;81.31;100156.78;5102393;27;20244;-69
2023/11/21 11:05:24;;;;;;;15.83;10.27;;;;;;;0.36;81.65;100155.91;5110726;27;20538;-71
2023/11/21 11:07:54;;;;;;;14.30;10.77;;;;;;;0.40;81.68;100156.06;5108438;27;20200;-69
2023/11/21 11:10:26;;;;;;;16.70;10.80;;;;;;;0.38;80.06;100151.78;5111959;27;20895;-69
2023/11/21 11:12:55;;;;;;;14.83;9.70;;;;;;;0.30;80.06;100154.06;5108011;27;20210;-70
2023/11/21 11:15:27;;;;;;;15.73;9.70;;;;;;;0.22;81.48;100151.31;5112673;28;20224;-68
2023/11/21 11:17:57;;;;;;;14.57;10.30;;;;;;;0.19;81.78;100150.34;5105920;27;20211;-68
2023/11/21 11:20:33;;;;;;;17.13;10.10;;;;;;;0.17;81.96;100154.50;5110857;27;20206;-69
2023/11/21 11:23:20;;;;;;;18.30;10.43;;;;;;;0.14;81.94;100156.91;5114061;27;20226;-69
2023/11/21 11:26:05;;;;;;;15.03;10.33;;;;;;;0.09;82.22;100154.25;5104055;27;20206;-70
2023/11/21 11:28:45;;;;;;;16.93;10.57;;;;;;;0.06;82.53;100163.41;5118253;27;20867;-72
2023/11/21 11:31:27;;;;;;;14.07;10.20;;;;;;;0.06;82.72;100169.34;5097549;27;20208;-70